Pagrindinis puslapis
METAR-TAF:

METAR-TAF

Oro uostai :

Buochs, Šveicarija

platuma: 46-58-28N, ilguma: 8-23-49E, Aukštis: 449 m

Dabartinis oras

Ataskaita buvo paskelbta 39 minutes, ne 20:50 UTC
Vėjas 4 kt iš Pietvakarių, svyruoja nuo Pietų ir Vakarų/Šiaurės Vakarų
Temperatūra 12°C
Drėgmė 58%
Slėgis 1023 hPa
Matomumas 10 km arba daugiau
nėra debesų žemiau 1500 m ir nėra kamuolinių lietaus debesų

METAR: LSZC 092050Z AUTO 22004KT 190V290 CAVOK 12/04 Q1023

Laikas: 23:29 (21:29 UTC)

Prognozė

Ataskaita buvo paskelbta 7 valandos ir 4 minutes, ne 14:25 UTC
Prognozė galioja nuo 09 metu 15 UTC su 09 metu 24 UTC
Vėjas 4 kt iš Šiaurės Rytų
Matomumas 10 km arba daugiau
nėra debesų žemiau 1500 m ir nėra kamuolinių lietaus debesų

TAF: LSZC 091425Z 0915/0924 05004KT CAVOK

Orai ataskaitas ir orų prognozės (METAR, TAF).

turimą stotys yra geltonos ir raudonos taškus žemėlapyje.

Perkelti pele per norėdami pamatyti stoties vardą.

Tada spustelėkite, norėdami matyti oro stebėjimo ir prognozės.

Norėdami pakeisti žemėlapį: spustelėkite ant žalios mygtukų su juodo kryžiaus žemyn,; žalią mygtuką su brūkšneliu, jei norite nutolinti; arba žalių rodyklių gretimoms žemėlapius.


METAR-TAF: